createdAt,value
2023-01-29T00:01:48.144Z,9.05
2023-01-29T00:06:51.265Z,13.18
2023-01-29T00:11:53.828Z,11.82
2023-01-29T00:16:56.550Z,8.60
2023-01-29T00:21:59.274Z,10.00
2023-01-29T00:27:01.844Z,10.75
2023-01-29T00:32:04.965Z,11.43
2023-01-29T00:37:09.103Z,11.65
2023-01-29T00:42:31.880Z,15.25
2023-01-29T00:47:34.652Z,11.98
2023-01-29T00:52:37.458Z,11.02
2023-01-29T00:57:40.934Z,12.38
2023-01-29T01:03:03.503Z,13.45
2023-01-29T01:08:26.036Z,14.45
2023-01-29T01:13:28.838Z,9.70
2023-01-29T01:18:32.870Z,11.77
2023-01-29T01:23:35.765Z,13.88
2023-01-29T01:28:39.639Z,10.80
2023-01-29T01:33:42.296Z,13.45
2023-01-29T01:38:44.889Z,11.15
2023-01-29T01:43:58.246Z,14.40
2023-01-29T01:59:34.388Z,11.98
2023-01-29T02:05:07.749Z,8.85
2023-01-29T02:10:15.613Z,9.98
2023-01-29T02:15:18.438Z,16.05
2023-01-29T02:20:26.756Z,13.57
2023-01-29T02:37:12.655Z,13.27
2023-01-29T02:53:00.810Z,10.27
2023-01-29T02:58:12.002Z,13.57
2023-01-29T03:03:38.166Z,10.13
2023-01-29T03:08:45.867Z,9.82
2023-01-29T03:14:02.904Z,11.98
2023-01-29T03:19:12.272Z,11.52
2023-01-29T03:24:40.126Z,10.43
2023-01-29T03:30:04.015Z,8.75
2023-01-29T03:35:37.546Z,11.98
2023-01-29T03:41:07.904Z,11.15
2023-01-29T03:57:15.580Z,10.45
2023-01-29T04:02:28.039Z,17.35
2023-01-29T04:07:36.916Z,13.32
2023-01-29T04:12:48.578Z,9.48
2023-01-29T04:17:53.606Z,11.52
2023-01-29T04:23:08.006Z,9.10
2023-01-29T04:28:21.549Z,11.77
2023-01-29T04:33:41.984Z,11.95
2023-01-29T05:00:17.180Z,13.55
2023-01-29T05:05:21.282Z,11.75
2023-01-29T05:10:25.461Z,8.55
2023-01-29T05:15:37.743Z,13.38
2023-01-29T05:20:43.808Z,10.43
2023-01-29T05:30:53.036Z,17.25
2023-01-29T05:35:56.574Z,16.95
2023-01-29T05:40:59.701Z,16.17
2023-01-29T05:46:02.322Z,10.50
2023-01-29T05:51:05.257Z,17.17
2023-01-29T05:56:07.981Z,16.20
2023-01-29T06:01:14.763Z,14.43
2023-01-29T06:06:17.875Z,15.20
2023-01-29T06:11:20.836Z,14.45
2023-01-29T06:16:23.619Z,10.63
2023-01-29T06:21:26.166Z,11.45
2023-01-29T06:26:28.774Z,13.57
2023-01-29T06:31:39.908Z,12.55
2023-01-29T06:36:43.219Z,15.07
2023-01-29T06:41:46.836Z,10.45
2023-01-29T06:46:49.379Z,16.70
2023-01-29T06:51:51.906Z,14.45
2023-01-29T06:56:54.457Z,15.60
2023-01-29T07:01:57.054Z,16.25
2023-01-29T07:07:00.341Z,13.02
2023-01-29T07:12:04.913Z,16.20
2023-01-29T07:17:07.726Z,15.93
2023-01-29T07:22:10.403Z,10.75
2023-01-29T07:27:13.092Z,9.77
2023-01-29T07:32:15.734Z,11.02
2023-01-29T07:37:18.372Z,11.70
2023-01-29T07:42:20.935Z,13.27
2023-01-29T07:47:23.488Z,16.23
2023-01-29T07:52:26.154Z,12.98
2023-01-29T07:57:28.817Z,11.05
2023-01-29T08:02:31.446Z,11.85
2023-01-29T08:07:34.077Z,18.10
2023-01-29T08:12:37.050Z,13.13
2023-01-29T08:17:56.090Z,16.77
2023-01-29T08:23:04.633Z,14.65
2023-01-29T08:28:07.358Z,21.95
2023-01-29T08:33:10.245Z,23.40
2023-01-29T08:38:12.884Z,23.10
2023-01-29T08:43:16.245Z,29.63
2023-01-29T08:48:18.853Z,23.70
2023-01-29T08:53:24.744Z,20.70
2023-01-29T08:58:27.368Z,21.92
2023-01-29T09:03:29.953Z,43.03
2023-01-29T09:08:32.628Z,29.05
2023-01-29T09:13:35.587Z,43.28
2023-01-29T09:18:39.540Z,20.63
2023-01-29T09:23:44.796Z,15.07
2023-01-29T09:33:49.873Z,26.35
2023-01-29T09:38:52.424Z,27.95
2023-01-29T09:44:00.243Z,48.28
2023-01-29T09:49:13.348Z,40.92
2023-01-29T09:54:27.500Z,34.92
2023-01-29T09:59:33.662Z,43.20
2023-01-29T10:10:21.255Z,22.40
2023-01-29T10:26:13.104Z,35.50
2023-01-29T10:31:25.322Z,32.22
2023-01-29T10:36:35.180Z,21.77
2023-01-29T10:52:54.763Z,30.92
2023-01-29T11:03:29.284Z,29.90
2023-01-29T11:08:43.388Z,20.67
2023-01-29T11:13:53.371Z,19.27
2023-01-29T11:18:59.779Z,20.20
2023-01-29T11:24:07.906Z,28.23
2023-01-29T11:29:34.399Z,23.27
2023-01-29T11:34:57.525Z,25.70
2023-01-29T11:40:00.147Z,31.17
2023-01-29T11:45:02.993Z,22.70
2023-01-29T11:50:06.621Z,29.20
2023-01-29T11:55:49.474Z,21.67
2023-01-29T12:00:55.499Z,28.63
2023-01-29T12:06:04.641Z,20.80
2023-01-29T12:11:35.366Z,26.75
2023-01-29T12:32:55.793Z,29.02
2023-01-29T12:43:18.760Z,26.73
2023-01-29T12:48:27.978Z,29.88
2023-01-29T12:53:55.261Z,22.08
2023-01-29T12:59:01.596Z,31.02
2023-01-29T13:09:28.189Z,22.42
2023-01-29T13:15:10.557Z,28.98
2023-01-29T13:25:28.191Z,21.27
2023-01-29T13:30:33.648Z,30.48
2023-01-29T13:35:40.567Z,28.38
2023-01-29T13:40:50.920Z,30.27
2023-01-29T13:45:55.059Z,27.40
2023-01-29T13:51:02.222Z,31.30
2023-01-29T14:07:43.836Z,23.25
2023-01-29T14:12:47.731Z,20.20
2023-01-29T14:17:57.221Z,24.10
2023-01-29T14:23:04.076Z,28.83
2023-01-29T14:28:16.441Z,27.02
2023-01-29T14:38:52.563Z,19.52
2023-01-29T14:44:35.955Z,20.13
2023-01-29T14:49:59.072Z,22.40
2023-01-29T14:55:07.069Z,25.20
2023-01-29T15:00:27.830Z,25.27
2023-01-29T15:05:37.421Z,21.90
2023-01-29T15:10:46.014Z,18.92
2023-01-29T15:15:55.257Z,20.98
2023-01-29T15:21:12.183Z,24.73
2023-01-29T15:26:26.981Z,20.15
2023-01-29T15:31:30.034Z,19.35
2023-01-29T15:36:33.195Z,20.65
2023-01-29T15:41:39.149Z,20.35
2023-01-29T15:46:48.384Z,24.35
2023-01-29T15:51:57.188Z,24.23
2023-01-29T15:57:00.517Z,26.58
2023-01-29T16:07:28.985Z,26.38
2023-01-29T16:12:33.840Z,24.65
2023-01-29T16:17:41.113Z,26.70
2023-01-29T16:22:46.615Z,28.30
2023-01-29T16:27:50.464Z,34.03
2023-01-29T16:32:53.268Z,26.60
2023-01-29T16:38:02.821Z,23.05
2023-01-29T16:48:37.715Z,29.33
2023-01-29T16:53:52.465Z,28.23
2023-01-29T16:58:55.915Z,39.28
2023-01-29T17:04:07.772Z,47.10
2023-01-29T17:09:22.696Z,37.92
2023-01-29T17:14:26.461Z,35.75
2023-01-29T17:19:30.319Z,37.03
2023-01-29T17:24:32.847Z,34.50
2023-01-29T17:29:36.529Z,28.75
2023-01-29T17:34:39.199Z,32.72
2023-01-29T17:39:42.803Z,32.40
2023-01-29T17:44:46.526Z,32.75
2023-01-29T17:49:49.488Z,33.70
2023-01-29T17:54:52.146Z,39.13
2023-01-29T17:59:57.444Z,37.20
2023-01-29T18:05:00.143Z,36.60
2023-01-29T18:10:03.966Z,34.65
2023-01-29T18:15:07.092Z,34.03
2023-01-29T18:20:22.285Z,32.75
2023-01-29T18:25:25.998Z,31.17
2023-01-29T18:30:29.038Z,32.97
2023-01-29T18:35:31.594Z,33.40
2023-01-29T18:40:34.259Z,38.08
2023-01-29T18:45:36.916Z,32.47
2023-01-29T18:50:39.920Z,38.35
2023-01-29T18:55:42.617Z,43.65
2023-01-29T19:00:45.484Z,40.75
2023-01-29T19:05:48.293Z,34.45
2023-01-29T19:10:50.864Z,31.98
2023-01-29T19:15:53.745Z,29.02
2023-01-29T19:20:56.519Z,35.05
2023-01-29T19:25:59.139Z,37.00
2023-01-29T19:31:02.589Z,38.38
2023-01-29T19:36:06.801Z,33.15
2023-01-29T19:41:09.866Z,31.60
2023-01-29T19:46:12.636Z,35.53
2023-01-29T19:51:16.061Z,31.98
2023-01-29T19:56:20.007Z,41.05
2023-01-29T20:01:24.809Z,34.05
2023-01-29T20:06:31.143Z,42.80
2023-01-29T20:11:35.169Z,43.25
2023-01-29T20:16:38.671Z,42.80
2023-01-29T20:21:45.490Z,41.13
2023-01-29T20:26:48.719Z,38.25
2023-01-29T20:31:51.400Z,33.17
2023-01-29T20:36:53.979Z,39.08
2023-01-29T20:41:57.428Z,35.40
2023-01-29T20:47:02.694Z,33.00
2023-01-29T20:52:06.662Z,32.55
2023-01-29T20:57:09.638Z,43.38
2023-01-29T21:02:13.653Z,28.35
2023-01-29T21:07:16.534Z,32.65
2023-01-29T21:12:19.128Z,27.88
2023-01-29T21:17:21.789Z,31.48
2023-01-29T21:22:24.489Z,41.92
2023-01-29T21:27:27.358Z,31.88
2023-01-29T21:32:29.989Z,29.35
2023-01-29T21:37:36.966Z,32.90
2023-01-29T21:43:01.541Z,30.17
2023-01-29T21:48:04.894Z,24.75
2023-01-29T21:53:07.817Z,33.58
2023-01-29T21:58:12.313Z,31.65
2023-01-29T22:03:16.685Z,31.15
2023-01-29T22:08:20.605Z,27.75
2023-01-29T22:13:23.628Z,23.92
2023-01-29T22:18:26.990Z,27.63
2023-01-29T22:23:33.659Z,24.38
2023-01-29T22:28:36.222Z,20.50
2023-01-29T22:33:38.981Z,23.98
2023-01-29T22:38:43.420Z,28.98
2023-01-29T22:43:46.035Z,39.38
2023-01-29T22:48:48.596Z,33.80
2023-01-29T22:53:54.806Z,27.10
2023-01-29T22:59:00.229Z,27.50
2023-01-29T23:04:03.349Z,26.73
2023-01-29T23:09:07.503Z,26.05
2023-01-29T23:14:10.461Z,40.58
2023-01-29T23:19:15.576Z,32.58
2023-01-29T23:24:19.170Z,35.65
2023-01-29T23:29:23.323Z,29.65
2023-01-29T23:34:29.942Z,32.45
2023-01-29T23:39:35.894Z,30.42
2023-01-29T23:44:40.670Z,32.10
2023-01-29T23:49:43.757Z,30.45
2023-01-29T23:54:46.634Z,29.20
2023-01-29T23:59:49.899Z,27.98
